sensor_id;sensor_type;location;lat;lon;timestamp;pressure;altitude;pressure_sealevel;temperature;humidity
6528;BME280;64597;42.664;23.256;2023-02-11T00:02:01;96228.06;;;-2.42;54.38
6528;BME280;64597;42.664;23.256;2023-02-11T00:04:30;96230.53;;;-2.52;54.46
6528;BME280;64597;42.664;23.256;2023-02-11T00:06:56;96226.84;;;-2.60;54.45
6528;BME280;64597;42.664;23.256;2023-02-11T00:09:22;96226.94;;;-2.62;54.65
6528;BME280;64597;42.664;23.256;2023-02-11T00:11:48;96232.59;;;-2.57;54.47
6528;BME280;64597;42.664;23.256;2023-02-11T00:14:13;96214.16;;;-2.63;54.68
6528;BME280;64597;42.664;23.256;2023-02-11T00:16:39;96238.03;;;-2.48;54.05
6528;BME280;64597;42.664;23.256;2023-02-11T00:19:06;96215.91;;;-2.64;54.29
6528;BME280;64597;42.664;23.256;2023-02-11T00:21:33;96232.59;;;-2.57;53.96
6528;BME280;64597;42.664;23.256;2023-02-11T00:23:59;96231.16;;;-2.72;54.75
6528;BME280;64597;42.664;23.256;2023-02-11T00:26:33;96240.34;;;-2.57;54.16
6528;BME280;64597;42.664;23.256;2023-02-11T00:29:00;96238.22;;;-2.63;54.19
6528;BME280;64597;42.664;23.256;2023-02-11T00:31:26;96242.22;;;-2.59;54.22
6528;BME280;64597;42.664;23.256;2023-02-11T00:33:53;96235.00;;;-2.77;54.74
6528;BME280;64597;42.664;23.256;2023-02-11T00:36:21;96235.34;;;-2.82;54.74
6528;BME280;64597;42.664;23.256;2023-02-11T00:38:48;96232.22;;;-2.74;54.62
6528;BME280;64597;42.664;23.256;2023-02-11T00:41:15;96226.94;;;-2.73;54.44
6528;BME280;64597;42.664;23.256;2023-02-11T00:43:42;96233.91;;;-2.86;54.89
6528;BME280;64597;42.664;23.256;2023-02-11T00:46:09;96230.09;;;-3.04;55.41
6528;BME280;64597;42.664;23.256;2023-02-11T00:48:35;96228.88;;;-2.87;55.49
6528;BME280;64597;42.664;23.256;2023-02-11T00:51:01;96221.25;;;-2.89;55.39
6528;BME280;64597;42.664;23.256;2023-02-11T00:53:29;96221.34;;;-2.90;55.55
6528;BME280;64597;42.664;23.256;2023-02-11T00:55:55;96211.84;;;-2.90;55.23
6528;BME280;64597;42.664;23.256;2023-02-11T00:58:22;96216.44;;;-2.93;54.85
6528;BME280;64597;42.664;23.256;2023-02-11T01:00:48;96218.44;;;-2.86;55.04
6528;BME280;64597;42.664;23.256;2023-02-11T01:03:14;96213.97;;;-2.95;54.99
6528;BME280;64597;42.664;23.256;2023-02-11T01:05:40;96209.41;;;-2.91;54.61
6528;BME280;64597;42.664;23.256;2023-02-11T01:08:06;96227.97;;;-2.86;55.02
6528;BME280;64597;42.664;23.256;2023-02-11T01:10:32;96215.66;;;-2.83;54.55
6528;BME280;64597;42.664;23.256;2023-02-11T01:12:57;96206.00;;;-2.92;54.23
6528;BME280;64597;42.664;23.256;2023-02-11T01:15:23;96215.38;;;-2.91;54.42
6528;BME280;64597;42.664;23.256;2023-02-11T01:17:50;96208.81;;;-2.95;54.41
6528;BME280;64597;42.664;23.256;2023-02-11T01:20:19;96212.91;;;-2.92;54.32
6528;BME280;64597;42.664;23.256;2023-02-11T01:22:45;96194.00;;;-3.04;54.51
6528;BME280;64597;42.664;23.256;2023-02-11T01:25:12;96197.97;;;-3.11;54.71
6528;BME280;64597;42.664;23.256;2023-02-11T01:27:38;96212.75;;;-3.02;54.61
6528;BME280;64597;42.664;23.256;2023-02-11T01:30:06;96202.69;;;-3.05;54.43
6528;BME280;64597;42.664;23.256;2023-02-11T01:32:33;96205.97;;;-3.03;54.47
6528;BME280;64597;42.664;23.256;2023-02-11T01:34:58;96205.47;;;-3.08;54.52
6528;BME280;64597;42.664;23.256;2023-02-11T01:37:24;96199.34;;;-3.18;54.45
6528;BME280;64597;42.664;23.256;2023-02-11T01:39:50;96204.16;;;-3.13;54.29
6528;BME280;64597;42.664;23.256;2023-02-11T01:42:20;96198.78;;;-3.10;54.62
6528;BME280;64597;42.664;23.256;2023-02-11T01:44:49;96203.72;;;-3.07;54.88
6528;BME280;64597;42.664;23.256;2023-02-11T01:47:16;96198.03;;;-3.23;54.82
6528;BME280;64597;42.664;23.256;2023-02-11T01:49:49;96199.78;;;-3.24;54.73
6528;BME280;64597;42.664;23.256;2023-02-11T01:54:56;96180.44;;;-3.29;54.76
6528;BME280;64597;42.664;23.256;2023-02-11T01:57:46;96195.53;;;-3.25;54.97
6528;BME280;64597;42.664;23.256;2023-02-11T02:00:17;96186.88;;;-3.24;55.03
6528;BME280;64597;42.664;23.256;2023-02-11T02:03:07;96191.09;;;-3.23;54.73
6528;BME280;64597;42.664;23.256;2023-02-11T02:10:54;96197.63;;;-3.30;54.34
6528;BME280;64597;42.664;23.256;2023-02-11T02:13:22;96201.56;;;-3.37;54.41
6528;BME280;64597;42.664;23.256;2023-02-11T02:32:38;96206.63;;;-3.59;53.59
6528;BME280;64597;42.664;23.256;2023-02-11T02:38:22;96200.53;;;-3.58;54.28
6528;BME280;64597;42.664;23.256;2023-02-11T02:41:05;96199.41;;;-3.54;54.15
6528;BME280;64597;42.664;23.256;2023-02-11T02:43:32;96203.53;;;-3.52;54.06
6528;BME280;64597;42.664;23.256;2023-02-11T02:46:16;96181.88;;;-3.62;54.08
6528;BME280;64597;42.664;23.256;2023-02-11T02:48:43;96195.44;;;-3.47;54.03
6528;BME280;64597;42.664;23.256;2023-02-11T03:05:24;96190.34;;;-3.36;53.08
6528;BME280;64597;42.664;23.256;2023-02-11T03:08:17;96194.06;;;-3.40;52.79
6528;BME280;64597;42.664;23.256;2023-02-11T03:10:50;96191.50;;;-3.40;52.63
6528;BME280;64597;42.664;23.256;2023-02-11T03:13:19;96196.66;;;-3.40;52.86
6528;BME280;64597;42.664;23.256;2023-02-11T03:15:49;96190.66;;;-3.41;52.63
6528;BME280;64597;42.664;23.256;2023-02-11T03:18:18;96200.06;;;-3.40;52.56
6528;BME280;64597;42.664;23.256;2023-02-11T03:20:49;96194.78;;;-3.38;52.35
6528;BME280;64597;42.664;23.256;2023-02-11T03:23:32;96191.63;;;-3.42;52.36
6528;BME280;64597;42.664;23.256;2023-02-11T03:26:09;96176.16;;;-3.78;52.50
6528;BME280;64597;42.664;23.256;2023-02-11T03:28:54;96198.06;;;-3.60;53.09
6528;BME280;64597;42.664;23.256;2023-02-11T03:31:33;96192.03;;;-3.71;53.15
6528;BME280;64597;42.664;23.256;2023-02-11T03:37:09;96188.81;;;-3.62;52.91
6528;BME280;64597;42.664;23.256;2023-02-11T03:39:39;96191.16;;;-3.59;52.56
6528;BME280;64597;42.664;23.256;2023-02-11T03:42:08;96169.34;;;-3.66;52.85
6528;BME280;64597;42.664;23.256;2023-02-11T03:44:56;96185.16;;;-3.60;52.58
6528;BME280;64597;42.664;23.256;2023-02-11T03:47:25;96169.78;;;-3.72;52.11
6528;BME280;64597;42.664;23.256;2023-02-11T03:49:53;96174.38;;;-3.65;52.20
6528;BME280;64597;42.664;23.256;2023-02-11T03:52:21;96126.94;;;-3.86;51.69
6528;BME280;64597;42.664;23.256;2023-02-11T03:54:50;96133.53;;;-3.82;52.24
6528;BME280;64597;42.664;23.256;2023-02-11T03:57:17;96166.41;;;-3.62;51.85
6528;BME280;64597;42.664;23.256;2023-02-11T03:59:54;96176.13;;;-3.65;52.09
6528;BME280;64597;42.664;23.256;2023-02-11T04:02:26;96171.41;;;-3.71;52.15
6528;BME280;64597;42.664;23.256;2023-02-11T04:04:53;96186.84;;;-3.59;51.81
6528;BME280;64597;42.664;23.256;2023-02-11T04:07:19;96177.78;;;-3.64;51.76
6528;BME280;64597;42.664;23.256;2023-02-11T04:09:45;96188.09;;;-3.64;51.83
6528;BME280;64597;42.664;23.256;2023-02-11T04:12:12;96192.19;;;-3.62;51.75
6528;BME280;64597;42.664;23.256;2023-02-11T04:14:39;96194.13;;;-3.76;51.66
6528;BME280;64597;42.664;23.256;2023-02-11T04:17:05;96186.81;;;-3.82;52.00
6528;BME280;64597;42.664;23.256;2023-02-11T04:19:31;96154.81;;;-4.03;52.16
6528;BME280;64597;42.664;23.256;2023-02-11T04:21:57;96190.84;;;-3.91;52.32
6528;BME280;64597;42.664;23.256;2023-02-11T04:24:23;96180.25;;;-3.99;51.94
6528;BME280;64597;42.664;23.256;2023-02-11T04:26:49;96185.69;;;-3.91;52.41
6528;BME280;64597;42.664;23.256;2023-02-11T04:29:15;96177.56;;;-3.97;51.71
6528;BME280;64597;42.664;23.256;2023-02-11T04:31:40;96160.28;;;-4.08;51.70
6528;BME280;64597;42.664;23.256;2023-02-11T04:34:06;96184.88;;;-3.91;52.08
6528;BME280;64597;42.664;23.256;2023-02-11T04:36:32;96175.44;;;-4.03;52.13
6528;BME280;64597;42.664;23.256;2023-02-11T04:38:58;96178.72;;;-4.01;52.61
6528;BME280;64597;42.664;23.256;2023-02-11T04:41:24;96176.84;;;-3.99;51.77
6528;BME280;64597;42.664;23.256;2023-02-11T04:43:49;96173.56;;;-4.01;51.65
6528;BME280;64597;42.664;23.256;2023-02-11T04:46:15;96162.66;;;-4.05;51.47
6528;BME280;64597;42.664;23.256;2023-02-11T04:48:41;96177.28;;;-4.05;51.89
6528;BME280;64597;42.664;23.256;2023-02-11T04:51:06;96174.31;;;-4.25;52.13
6528;BME280;64597;42.664;23.256;2023-02-11T04:53:32;96164.66;;;-4.34;52.48
6528;BME280;64597;42.664;23.256;2023-02-11T04:55:58;96166.81;;;-4.28;52.64
6528;BME280;64597;42.664;23.256;2023-02-11T04:58:24;96176.59;;;-4.20;52.26
6528;BME280;64597;42.664;23.256;2023-02-11T05:00:51;96168.03;;;-4.21;52.16
6528;BME280;64597;42.664;23.256;2023-02-11T05:03:17;96168.56;;;-4.15;52.20
6528;BME280;64597;42.664;23.256;2023-02-11T05:05:43;96163.59;;;-4.19;51.71
6528;BME280;64597;42.664;23.256;2023-02-11T05:08:10;96166.41;;;-4.22;52.23
6528;BME280;64597;42.664;23.256;2023-02-11T05:10:37;96168.66;;;-4.17;51.75
6528;BME280;64597;42.664;23.256;2023-02-11T05:13:03;96163.28;;;-4.14;51.57
6528;BME280;64597;42.664;23.256;2023-02-11T05:15:29;96161.84;;;-4.18;51.44
6528;BME280;64597;42.664;23.256;2023-02-11T05:17:55;96124.28;;;-4.33;52.03
6528;BME280;64597;42.664;23.256;2023-02-11T05:20:22;96153.84;;;-4.26;51.80
6528;BME280;64597;42.664;23.256;2023-02-11T05:22:48;96158.88;;;-4.25;51.88
6528;BME280;64597;42.664;23.256;2023-02-11T05:25:14;96156.28;;;-4.25;52.41
6528;BME280;64597;42.664;23.256;2023-02-11T05:27:41;96167.13;;;-4.20;52.06
6528;BME280;64597;42.664;23.256;2023-02-11T05:30:09;96164.75;;;-4.23;52.09
6528;BME280;64597;42.664;23.256;2023-02-11T05:32:35;96166.19;;;-4.31;52.25
6528;BME280;64597;42.664;23.256;2023-02-11T05:35:02;96155.50;;;-4.38;52.08
6528;BME280;64597;42.664;23.256;2023-02-11T05:37:27;96166.81;;;-4.28;52.20
6528;BME280;64597;42.664;23.256;2023-02-11T05:39:53;96162.47;;;-4.27;52.12
6528;BME280;64597;42.664;23.256;2023-02-11T05:42:19;96156.22;;;-4.36;52.46
6528;BME280;64597;42.664;23.256;2023-02-11T05:44:45;96159.41;;;-4.32;52.72
6528;BME280;64597;42.664;23.256;2023-02-11T05:47:11;96164.31;;;-4.29;52.57
6528;BME280;64597;42.664;23.256;2023-02-11T05:49:37;96158.81;;;-4.36;52.73
6528;BME280;64597;42.664;23.256;2023-02-11T05:52:03;96166.31;;;-4.45;53.70
6528;BME280;64597;42.664;23.256;2023-02-11T05:54:30;96157.56;;;-4.43;53.09
6528;BME280;64597;42.664;23.256;2023-02-11T05:56:57;96160.66;;;-4.38;53.44
6528;BME280;64597;42.664;23.256;2023-02-11T05:59:24;96164.78;;;-4.48;52.95
6528;BME280;64597;42.664;23.256;2023-02-11T06:01:51;96169.22;;;-4.50;53.19
6528;BME280;64597;42.664;23.256;2023-02-11T06:04:16;96172.69;;;-4.51;53.61
6528;BME280;64597;42.664;23.256;2023-02-11T06:06:43;96171.78;;;-4.50;52.92
6528;BME280;64597;42.664;23.256;2023-02-11T06:09:09;96165.16;;;-4.54;53.25
6528;BME280;64597;42.664;23.256;2023-02-11T06:11:36;96179.41;;;-4.48;53.50
6528;BME280;64597;42.664;23.256;2023-02-11T06:14:02;96188.66;;;-4.46;53.13
6528;BME280;64597;42.664;23.256;2023-02-11T06:16:28;96173.84;;;-4.42;53.58
6528;BME280;64597;42.664;23.256;2023-02-11T06:18:54;96178.75;;;-4.27;53.55
6528;BME280;64597;42.664;23.256;2023-02-11T06:21:20;96156.00;;;-4.33;54.81
6528;BME280;64597;42.664;23.256;2023-02-11T06:23:45;96181.72;;;-4.20;54.75
6528;BME280;64597;42.664;23.256;2023-02-11T06:26:21;96176.63;;;-3.96;54.38
6528;BME280;64597;42.664;23.256;2023-02-11T06:28:47;96168.72;;;-3.70;54.41
6528;BME280;64597;42.664;23.256;2023-02-11T06:31:14;96174.91;;;-3.25;52.25
6528;BME280;64597;42.664;23.256;2023-02-11T06:33:40;96179.78;;;-2.75;51.40
6528;BME280;64597;42.664;23.256;2023-02-11T06:36:13;96175.97;;;-2.36;49.03
6528;BME280;64597;42.664;23.256;2023-02-11T06:38:41;96173.13;;;-1.78;48.00
6528;BME280;64597;42.664;23.256;2023-02-11T06:41:11;96143.78;;;-1.45;47.41
6528;BME280;64597;42.664;23.256;2023-02-11T06:43:38;96153.16;;;-1.01;45.16
6528;BME280;64597;42.664;23.256;2023-02-11T06:46:05;96173.03;;;-0.60;45.37
6528;BME280;64597;42.664;23.256;2023-02-11T06:48:31;96171.69;;;-0.04;44.43
6528;BME280;64597;42.664;23.256;2023-02-11T06:51:05;96170.88;;;0.35;42.99
6528;BME280;64597;42.664;23.256;2023-02-11T06:53:35;96161.09;;;0.48;42.58
6528;BME280;64597;42.664;23.256;2023-02-11T06:56:04;96149.94;;;0.86;42.38
6528;BME280;64597;42.664;23.256;2023-02-11T06:58:30;96164.25;;;1.38;40.81
6528;BME280;64597;42.664;23.256;2023-02-11T07:00:58;96165.53;;;1.80;40.66
6528;BME280;64597;42.664;23.256;2023-02-11T07:03:24;96161.44;;;2.41;40.06
6528;BME280;64597;42.664;23.256;2023-02-11T07:05:50;96166.59;;;2.96;39.18
6528;BME280;64597;42.664;23.256;2023-02-11T07:08:16;96169.78;;;3.43;38.11
6528;BME280;64597;42.664;23.256;2023-02-11T07:10:42;96143.41;;;3.97;38.84
6528;BME280;64597;42.664;23.256;2023-02-11T07:13:08;96144.44;;;4.46;37.82
6528;BME280;64597;42.664;23.256;2023-02-11T07:15:35;96153.53;;;4.83;36.89
6528;BME280;64597;42.664;23.256;2023-02-11T07:18:01;96149.03;;;5.26;35.74
6528;BME280;64597;42.664;23.256;2023-02-11T07:20:27;96139.25;;;5.52;35.39
6528;BME280;64597;42.664;23.256;2023-02-11T07:22:52;96130.72;;;5.90;34.29
6528;BME280;64597;42.664;23.256;2023-02-11T07:25:19;96123.38;;;6.32;33.20
6528;BME280;64597;42.664;23.256;2023-02-11T07:27:45;96124.19;;;6.72;32.16
6528;BME280;64597;42.664;23.256;2023-02-11T07:30:11;96125.19;;;6.93;31.36
6528;BME280;64597;42.664;23.256;2023-02-11T07:32:37;96093.34;;;7.04;31.73
6528;BME280;64597;42.664;23.256;2023-02-11T07:35:03;96107.97;;;7.59;30.83
6528;BME280;64597;42.664;23.256;2023-02-11T07:37:29;96102.31;;;7.84;30.36
6528;BME280;64597;42.664;23.256;2023-02-11T07:39:55;96101.63;;;8.19;29.72
6528;BME280;64597;42.664;23.256;2023-02-11T07:42:21;96095.19;;;8.51;29.70
6528;BME280;64597;42.664;23.256;2023-02-11T07:44:46;96092.81;;;8.56;27.21
6528;BME280;64597;42.664;23.256;2023-02-11T07:47:16;96093.59;;;8.71;27.71
6528;BME280;64597;42.664;23.256;2023-02-11T07:49:43;96089.78;;;9.09;28.37
6528;BME280;64597;42.664;23.256;2023-02-11T07:52:09;96070.97;;;9.34;28.21
6528;BME280;64597;42.664;23.256;2023-02-11T07:54:35;96076.56;;;9.73;27.46
6528;BME280;64597;42.664;23.256;2023-02-11T07:57:01;96081.22;;;10.05;25.69
6528;BME280;64597;42.664;23.256;2023-02-11T07:59:27;96084.28;;;10.09;26.71
6528;BME280;64597;42.664;23.256;2023-02-11T08:01:53;96073.88;;;10.28;26.43
6528;BME280;64597;42.664;23.256;2023-02-11T08:04:19;96056.47;;;10.00;25.13
6528;BME280;64597;42.664;23.256;2023-02-11T08:06:44;96076.50;;;10.28;25.95
6528;BME280;64597;42.664;23.256;2023-02-11T08:09:14;96080.50;;;10.52;25.35
6528;BME280;64597;42.664;23.256;2023-02-11T08:11:40;96057.13;;;10.42;25.68
6528;BME280;64597;42.664;23.256;2023-02-11T08:14:07;96087.28;;;10.81;25.56
6528;BME280;64597;42.664;23.256;2023-02-11T08:16:34;96078.81;;;10.98;25.62
6528;BME280;64597;42.664;23.256;2023-02-11T08:19:06;96071.13;;;11.10;25.28
6528;BME280;64597;42.664;23.256;2023-02-11T08:21:32;96065.22;;;10.95;24.46
6528;BME280;64597;42.664;23.256;2023-02-11T08:24:00;96079.66;;;11.05;24.86
6528;BME280;64597;42.664;23.256;2023-02-11T08:26:29;96082.72;;;11.22;24.74
6528;BME280;64597;42.664;23.256;2023-02-11T08:28:57;96083.56;;;11.48;24.79
6528;BME280;64597;42.664;23.256;2023-02-11T08:31:25;96068.13;;;11.52;25.00
6528;BME280;64597;42.664;23.256;2023-02-11T08:33:52;96078.09;;;11.76;24.75
6528;BME280;64597;42.664;23.256;2023-02-11T08:36:23;96077.91;;;11.97;24.49
6528;BME280;64597;42.664;23.256;2023-02-11T08:38:50;96082.16;;;11.98;24.94
6528;BME280;64597;42.664;23.256;2023-02-11T08:41:16;96059.81;;;11.68;24.68
6528;BME280;64597;42.664;23.256;2023-02-11T08:43:43;96067.31;;;11.45;25.26
6528;BME280;64597;42.664;23.256;2023-02-11T08:46:15;96067.91;;;11.34;25.93
6528;BME280;64597;42.664;23.256;2023-02-11T08:48:41;96076.22;;;11.24;25.57
6528;BME280;64597;42.664;23.256;2023-02-11T08:51:09;96077.00;;;11.05;25.24
6528;BME280;64597;42.664;23.256;2023-02-11T08:53:36;96073.34;;;10.93;26.83
6528;BME280;64597;42.664;23.256;2023-02-11T08:56:02;96075.59;;;11.09;26.17
6528;BME280;64597;42.664;23.256;2023-02-11T08:58:28;96079.28;;;11.47;25.39
6528;BME280;64597;42.664;23.256;2023-02-11T09:00:54;96076.72;;;11.67;25.82
6528;BME280;64597;42.664;23.256;2023-02-11T09:03:20;96069.56;;;11.81;24.31
6528;BME280;64597;42.664;23.256;2023-02-11T09:05:48;96077.50;;;11.94;23.97
6528;BME280;64597;42.664;23.256;2023-02-11T09:08:18;96063.03;;;11.96;23.17
6528;BME280;64597;42.664;23.256;2023-02-11T09:10:45;96069.97;;;11.97;23.34
6528;BME280;64597;42.664;23.256;2023-02-11T09:13:12;96066.50;;;11.84;24.45
6528;BME280;64597;42.664;23.256;2023-02-11T09:15:38;96075.63;;;12.07;24.59
6528;BME280;64597;42.664;23.256;2023-02-11T09:18:05;96072.00;;;11.95;23.90
6528;BME280;64597;42.664;23.256;2023-02-11T09:20:30;96062.22;;;12.09;24.08
6528;BME280;64597;42.664;23.256;2023-02-11T09:22:57;96063.03;;;11.96;23.79
6528;BME280;64597;42.664;23.256;2023-02-11T09:25:24;96045.59;;;11.63;24.42
6528;BME280;64597;42.664;23.256;2023-02-11T09:27:51;96054.94;;;11.65;24.74
6528;BME280;64597;42.664;23.256;2023-02-11T09:30:18;96047.00;;;11.58;24.63
6528;BME280;64597;42.664;23.256;2023-02-11T09:32:43;96040.72;;;11.79;24.32
6528;BME280;64597;42.664;23.256;2023-02-11T09:35:09;96040.88;;;12.04;24.37
6528;BME280;64597;42.664;23.256;2023-02-11T09:37:34;96035.00;;;12.02;24.21
6528;BME280;64597;42.664;23.256;2023-02-11T09:40:00;96043.16;;;11.74;24.39
6528;BME280;64597;42.664;23.256;2023-02-11T09:45:23;96037.47;;;11.77;24.97
6528;BME280;64597;42.664;23.256;2023-02-11T09:48:13;96031.94;;;11.98;24.73
6528;BME280;64597;42.664;23.256;2023-02-11T09:50:42;96016.03;;;12.11;24.13
6528;BME280;64597;42.664;23.256;2023-02-11T09:55:49;96025.66;;;11.86;24.23
6528;BME280;64597;42.664;23.256;2023-02-11T10:00:56;96021.78;;;11.95;24.28
6528;BME280;64597;42.664;23.256;2023-02-11T10:06:47;96000.88;;;11.87;23.10
6528;BME280;64597;42.664;23.256;2023-02-11T10:22:57;95968.56;;;12.36;23.02
6528;BME280;64597;42.664;23.256;2023-02-11T10:25:42;95958.47;;;12.58;22.38
6528;BME280;64597;42.664;23.256;2023-02-11T10:28:12;95949.38;;;12.47;23.34
6528;BME280;64597;42.664;23.256;2023-02-11T10:30:57;95935.66;;;12.25;23.50
6528;BME280;64597;42.664;23.256;2023-02-11T10:36:10;95931.00;;;12.59;22.73
6528;BME280;64597;42.664;23.256;2023-02-11T10:38:36;95912.53;;;12.52;22.86
6528;BME280;64597;42.664;23.256;2023-02-11T10:41:02;95905.38;;;12.21;22.84
6528;BME280;64597;42.664;23.256;2023-02-11T10:43:29;95905.50;;;11.95;23.16
6528;BME280;64597;42.664;23.256;2023-02-11T10:45:56;95885.56;;;11.99;23.19
6528;BME280;64597;42.664;23.256;2023-02-11T10:49:01;95889.75;;;11.69;23.03
6528;BME280;64597;42.664;23.256;2023-02-11T10:51:28;95898.88;;;11.53;23.27
6528;BME280;64597;42.664;23.256;2023-02-11T10:56:30;95894.03;;;11.50;24.19
6528;BME280;64597;42.664;23.256;2023-02-11T10:59:00;95887.38;;;11.22;24.26
6528;BME280;64597;42.664;23.256;2023-02-11T11:01:47;95885.56;;;11.16;24.23
6528;BME280;64597;42.664;23.256;2023-02-11T11:04:43;95875.84;;;11.03;25.36
6528;BME280;64597;42.664;23.256;2023-02-11T11:07:24;95879.84;;;11.32;25.69
6528;BME280;64597;42.664;23.256;2023-02-11T11:12:35;95874.19;;;11.09;24.39
6528;BME280;64597;42.664;23.256;2023-02-11T11:15:16;95870.94;;;11.20;24.72
6528;BME280;64597;42.664;23.256;2023-02-11T11:17:43;95836.41;;;11.15;24.90
6528;BME280;64597;42.664;23.256;2023-02-11T11:22:44;95855.28;;;11.25;24.18
6528;BME280;64597;42.664;23.256;2023-02-11T11:25:40;95837.47;;;10.55;24.92
6528;BME280;64597;42.664;23.256;2023-02-11T11:28:18;95857.34;;;10.84;25.67
6528;BME280;64597;42.664;23.256;2023-02-11T11:30:44;95862.63;;;10.97;25.54
6528;BME280;64597;42.664;23.256;2023-02-11T11:33:28;95857.56;;;11.02;26.08
6528;BME280;64597;42.664;23.256;2023-02-11T11:36:06;95835.66;;;10.95;25.19
6528;BME280;64597;42.664;23.256;2023-02-11T11:38:34;95851.09;;;10.91;25.02
6528;BME280;64597;42.664;23.256;2023-02-11T11:41:27;95842.97;;;10.73;25.13
6528;BME280;64597;42.664;23.256;2023-02-11T11:44:00;95854.53;;;10.52;25.51
6528;BME280;64597;42.664;23.256;2023-02-11T11:46:34;95851.50;;;10.68;25.70
6528;BME280;64597;42.664;23.256;2023-02-11T11:49:21;95852.09;;;10.57;26.03
6528;BME280;64597;42.664;23.256;2023-02-11T11:54:29;95834.22;;;15.61;46.44
6528;BME280;64597;42.664;23.256;2023-02-11T11:57:00;95822.69;;;16.68;38.87
6528;BME280;64597;42.664;23.256;2023-02-11T11:59:27;95803.41;;;15.88;26.40
6528;BME280;64597;42.664;23.256;2023-02-11T12:07:59;95809.31;;;13.44;26.52
6528;BME280;64597;42.664;23.256;2023-02-11T12:26:31;95765.09;;;11.79;25.04
6528;BME280;64597;42.664;23.256;2023-02-11T12:42:46;95771.16;;;10.45;25.83
6528;BME280;64597;42.664;23.256;2023-02-11T12:56:36;95758.94;;;9.85;27.99
6528;BME280;64597;42.664;23.256;2023-02-11T12:59:12;95750.00;;;10.97;67.73
6528;BME280;64597;42.664;23.256;2023-02-11T13:01:40;95712.41;;;13.66;56.02
6528;BME280;64597;42.664;23.256;2023-02-11T13:04:19;95730.59;;;15.66;47.74
6528;BME280;64597;42.664;23.256;2023-02-11T13:06:59;95731.56;;;16.83;43.62
6528;BME280;64597;42.664;23.256;2023-02-11T13:09:35;95718.13;;;17.11;27.89
6528;BME280;64597;42.664;23.256;2023-02-11T13:12:03;95721.69;;;15.72;22.63
6528;BME280;64597;42.664;23.256;2023-02-11T13:14:51;95637.06;;;13.74;23.12
6528;BME280;64597;42.664;23.256;2023-02-11T13:17:27;95712.50;;;13.12;22.36
6528;BME280;64597;42.664;23.256;2023-02-11T13:20:01;95721.66;;;12.30;23.69
6528;BME280;64597;42.664;23.256;2023-02-11T13:22:43;95726.19;;;11.61;24.68
6528;BME280;64597;42.664;23.256;2023-02-11T13:25:34;95722.09;;;11.21;25.79
6528;BME280;64597;42.664;23.256;2023-02-11T13:30:40;95732.47;;;10.26;26.53
6528;BME280;64597;42.664;23.256;2023-02-11T13:33:20;95729.16;;;9.97;26.08
6528;BME280;64597;42.664;23.256;2023-02-11T13:38:23;95731.13;;;9.50;27.43
6528;BME280;64597;42.664;23.256;2023-02-11T13:43:27;95724.31;;;9.14;27.99
6528;BME280;64597;42.664;23.256;2023-02-11T13:46:01;95728.28;;;8.97;27.86
6528;BME280;64597;42.664;23.256;2023-02-11T13:48:30;95727.03;;;8.93;28.50
6528;BME280;64597;42.664;23.256;2023-02-11T13:51:01;95716.25;;;8.75;28.45
6528;BME280;64597;42.664;23.256;2023-02-11T13:53:28;95724.97;;;8.82;28.85
6528;BME280;64597;42.664;23.256;2023-02-11T13:56:11;95710.81;;;8.77;28.47
6528;BME280;64597;42.664;23.256;2023-02-11T13:58:46;95712.38;;;8.71;27.95
6528;BME280;64597;42.664;23.256;2023-02-11T14:04:21;95713.97;;;8.32;28.19
6528;BME280;64597;42.664;23.256;2023-02-11T14:16:08;95708.31;;;7.86;29.54
6528;BME280;64597;42.664;23.256;2023-02-11T14:21:22;95708.72;;;7.62;29.30
6528;BME280;64597;42.664;23.256;2023-02-11T14:30:04;95702.09;;;7.44;30.54
6528;BME280;64597;42.664;23.256;2023-02-11T14:32:51;95701.00;;;7.18;30.69
6528;BME280;64597;42.664;23.256;2023-02-11T14:38:14;95697.22;;;7.06;31.17
6528;BME280;64597;42.664;23.256;2023-02-11T14:43:43;95707.59;;;6.93;31.99
6528;BME280;64597;42.664;23.256;2023-02-11T14:46:13;95703.22;;;6.85;32.20
6528;BME280;64597;42.664;23.256;2023-02-11T14:48:44;95714.63;;;6.92;32.81
6528;BME280;64597;42.664;23.256;2023-02-11T14:51:39;95696.72;;;6.81;32.58
6528;BME280;64597;42.664;23.256;2023-02-11T14:54:17;95703.81;;;6.81;32.46
6528;BME280;64597;42.664;23.256;2023-02-11T14:57:04;95692.31;;;6.67;34.09
6528;BME280;64597;42.664;23.256;2023-02-11T14:59:30;95716.91;;;6.66;33.17
6528;BME280;64597;42.664;23.256;2023-02-11T15:01:55;95714.53;;;8.61;82.42
6528;BME280;64597;42.664;23.256;2023-02-11T15:04:25;95698.19;;;11.47;56.26
6528;BME280;64597;42.664;23.256;2023-02-11T15:06:52;95680.63;;;13.18;41.94
6528;BME280;64597;42.664;23.256;2023-02-11T15:11:49;95675.72;;;14.69;32.16
6528;BME280;64597;42.664;23.256;2023-02-11T15:14:34;95671.63;;;13.38;27.39
6528;BME280;64597;42.664;23.256;2023-02-11T15:17:06;95668.38;;;12.27;26.87
6528;BME280;64597;42.664;23.256;2023-02-11T15:19:35;95674.84;;;11.50;27.80
6528;BME280;64597;42.664;23.256;2023-02-11T15:22:37;95672.91;;;10.75;29.00
6528;BME280;64597;42.664;23.256;2023-02-11T15:27:46;95665.94;;;9.78;29.88
6528;BME280;64597;42.664;23.256;2023-02-11T15:32:54;95661.94;;;9.02;31.05
6528;BME280;64597;42.664;23.256;2023-02-11T15:35:57;95660.53;;;8.59;31.22
6528;BME280;64597;42.664;23.256;2023-02-11T15:38:16;95651.97;;;8.09;32.02
6528;BME280;64597;42.664;23.256;2023-02-11T15:41:01;95568.69;;;7.20;31.62
6528;BME280;64597;42.664;23.256;2023-02-11T15:43:48;95667.59;;;7.26;32.56
6528;BME280;64597;42.664;23.256;2023-02-11T15:46:22;95669.88;;;6.94;33.46
6528;BME280;64597;42.664;23.256;2023-02-11T15:48:50;95658.03;;;6.33;33.83
6528;BME280;64597;42.664;23.256;2023-02-11T15:51:26;95681.41;;;6.20;34.25
6528;BME280;64597;42.664;23.256;2023-02-11T15:53:58;95680.03;;;6.09;35.65
6528;BME280;64597;42.664;23.256;2023-02-11T15:56:37;95683.53;;;5.87;36.17
6528;BME280;64597;42.664;23.256;2023-02-11T15:59:28;95680.41;;;5.69;36.00
6528;BME280;64597;42.664;23.256;2023-02-11T16:02:03;95685.75;;;5.53;36.10
6528;BME280;64597;42.664;23.256;2023-02-11T16:04:29;95689.34;;;4.84;36.23
6528;BME280;64597;42.664;23.256;2023-02-11T16:06:55;95681.63;;;4.60;35.40
6528;BME280;64597;42.664;23.256;2023-02-11T16:09:25;95692.34;;;4.65;36.33
6528;BME280;64597;42.664;23.256;2023-02-11T16:11:56;95678.53;;;4.48;36.60